createdAt,value
2023-07-29T00:00:29.316Z,98683.62
2023-07-29T00:03:17.024Z,98684.52
2023-07-29T00:05:44.911Z,98687.58
2023-07-29T00:08:12.676Z,98685.77
2023-07-29T00:10:40.438Z,98684.77
2023-07-29T00:13:08.203Z,98682.08
2023-07-29T00:15:35.966Z,98688.23
2023-07-29T00:18:03.899Z,98690.50
2023-07-29T00:20:31.557Z,98689.91
2023-07-29T00:23:00.236Z,98691.03
2023-07-29T00:25:27.829Z,98688.70
2023-07-29T00:27:55.491Z,98691.73
2023-07-29T00:30:23.107Z,98685.88
2023-07-29T00:32:50.752Z,98680.73
2023-07-29T00:35:18.425Z,98678.56
2023-07-29T00:37:46.101Z,98674.95
2023-07-29T00:40:13.919Z,98675.28
2023-07-29T00:42:41.990Z,98678.00
2023-07-29T00:45:09.764Z,98680.34
2023-07-29T00:47:37.533Z,98681.72
2023-07-29T00:50:05.402Z,98687.61
2023-07-29T00:52:33.149Z,98686.04
2023-07-29T00:55:00.875Z,98687.10
2023-07-29T00:57:29.601Z,98686.45
2023-07-29T00:59:57.262Z,98689.36
2023-07-29T01:02:25.160Z,98690.15
2023-07-29T01:04:52.999Z,98690.05
2023-07-29T01:07:20.765Z,98688.71
2023-07-29T01:09:48.529Z,98692.37
2023-07-29T01:12:16.626Z,98693.69
2023-07-29T01:14:44.275Z,98692.20
2023-07-29T01:17:12.152Z,98693.27
2023-07-29T01:19:39.897Z,98690.38
2023-07-29T01:22:07.657Z,98691.95
2023-07-29T01:24:35.521Z,98693.10
2023-07-29T01:27:05.229Z,98691.52
2023-07-29T01:29:32.897Z,98691.77
2023-07-29T01:32:00.762Z,98690.78
2023-07-29T01:34:28.525Z,98692.95
2023-07-29T01:36:56.100Z,98693.79
2023-07-29T01:39:23.858Z,98686.02
2023-07-29T01:41:51.842Z,98688.32
2023-07-29T01:44:19.583Z,98687.29
2023-07-29T01:46:47.346Z,98687.48
2023-07-29T01:49:15.120Z,98682.53
2023-07-29T01:51:42.772Z,98688.55
2023-07-29T01:54:10.540Z,98687.33
2023-07-29T01:56:38.720Z,98688.90
2023-07-29T01:59:06.474Z,98688.00
2023-07-29T02:01:34.267Z,98690.55
2023-07-29T02:04:02.139Z,98693.21
2023-07-29T02:06:29.867Z,98685.95
2023-07-29T02:08:57.634Z,98692.86
2023-07-29T02:11:29.171Z,98693.60
2023-07-29T02:13:57.259Z,98697.20
2023-07-29T02:16:25.180Z,98697.63
2023-07-29T02:18:55.827Z,98699.20
2023-07-29T02:21:24.187Z,98706.73
2023-07-29T02:23:51.899Z,98706.54
2023-07-29T02:26:19.983Z,98710.59
2023-07-29T02:28:47.947Z,98710.27
2023-07-29T02:31:16.049Z,98715.36
2023-07-29T02:33:43.924Z,98714.36
2023-07-29T02:36:11.748Z,98709.98
2023-07-29T02:38:39.414Z,98713.14
2023-07-29T02:41:07.596Z,98715.13
2023-07-29T02:43:35.343Z,98708.29
2023-07-29T02:46:03.131Z,98709.92
2023-07-29T02:48:31.404Z,98706.74
2023-07-29T02:50:59.153Z,98707.92
2023-07-29T02:53:26.817Z,98708.19
2023-07-29T02:55:55.381Z,98708.08
2023-07-29T02:58:22.994Z,98707.56
2023-07-29T03:00:51.461Z,98707.83
2023-07-29T03:03:20.889Z,98707.21
2023-07-29T03:05:49.024Z,98708.02
2023-07-29T03:08:16.780Z,98710.85
2023-07-29T03:10:44.441Z,98709.45
2023-07-29T03:13:12.122Z,98713.22
2023-07-29T03:15:40.070Z,98709.77
2023-07-29T03:18:07.852Z,98712.70
2023-07-29T03:20:35.601Z,98711.77
2023-07-29T03:23:04.193Z,98713.92
2023-07-29T03:25:31.779Z,98713.70
2023-07-29T03:27:59.435Z,98716.91
2023-07-29T03:30:27.098Z,98715.23
2023-07-29T03:32:54.875Z,98715.91
2023-07-29T03:35:22.700Z,98716.91
2023-07-29T03:37:50.368Z,98715.38
2023-07-29T03:40:19.439Z,98714.81
2023-07-29T03:42:47.426Z,98718.67
2023-07-29T03:45:15.698Z,98719.67
2023-07-29T03:47:43.501Z,98726.10
2023-07-29T03:50:11.341Z,98727.90
2023-07-29T03:52:39.094Z,98727.20
2023-07-29T03:55:06.862Z,98730.55
2023-07-29T03:57:34.641Z,98729.77
2023-07-29T04:00:02.392Z,98728.13
2023-07-29T04:02:30.171Z,98731.77
2023-07-29T04:04:58.092Z,98736.65
2023-07-29T04:07:25.892Z,98740.45
2023-07-29T04:09:53.858Z,98744.31
2023-07-29T04:12:22.850Z,98746.52
2023-07-29T04:14:50.615Z,98745.10
2023-07-29T04:17:18.287Z,98747.66
2023-07-29T04:19:46.042Z,98744.73
2023-07-29T04:22:13.806Z,98742.75
2023-07-29T04:24:41.571Z,98745.65
2023-07-29T04:27:09.333Z,98742.48
2023-07-29T04:29:37.305Z,98748.79
2023-07-29T04:32:05.081Z,98749.52
2023-07-29T04:34:34.062Z,98748.69
2023-07-29T04:37:01.827Z,98753.44
2023-07-29T04:39:29.597Z,98754.83
2023-07-29T04:41:58.696Z,98756.11
2023-07-29T04:44:26.454Z,98753.84
2023-07-29T04:46:54.214Z,98755.60
2023-07-29T04:49:21.875Z,98754.60
2023-07-29T04:51:49.543Z,98755.85
2023-07-29T04:54:17.521Z,98758.80
2023-07-29T04:56:45.277Z,98760.48
2023-07-29T04:59:14.367Z,98763.98
2023-07-29T05:01:43.784Z,98769.36
2023-07-29T05:04:11.537Z,98771.81
2023-07-29T05:06:39.988Z,98775.77
2023-07-29T05:09:07.985Z,98776.48
2023-07-29T05:11:35.662Z,98781.46
2023-07-29T05:14:04.541Z,98784.48
2023-07-29T05:16:32.302Z,98787.44
2023-07-29T05:19:00.069Z,98788.34
2023-07-29T05:21:28.043Z,98788.47
2023-07-29T05:23:55.696Z,98788.04
2023-07-29T05:26:23.359Z,98785.15
2023-07-29T05:28:51.130Z,98783.53
2023-07-29T05:31:19.201Z,98780.88
2023-07-29T05:33:47.020Z,98778.20
2023-07-29T05:36:14.827Z,98781.29
2023-07-29T05:38:42.484Z,98782.10
2023-07-29T05:41:10.253Z,98779.54
2023-07-29T05:43:38.022Z,98780.54
2023-07-29T05:46:05.811Z,98783.10
2023-07-29T05:48:34.045Z,98783.41
2023-07-29T05:51:01.710Z,98786.16
2023-07-29T05:53:29.309Z,98794.33
2023-07-29T05:55:56.923Z,98784.25
2023-07-29T05:58:24.970Z,98784.33
2023-07-29T06:00:53.048Z,98786.19
2023-07-29T06:03:20.949Z,98787.20
2023-07-29T06:05:50.411Z,98788.48
2023-07-29T06:08:19.042Z,98794.17
2023-07-29T06:10:46.807Z,98794.02
2023-07-29T06:13:14.473Z,98791.73
2023-07-29T06:15:42.157Z,98794.84
2023-07-29T06:18:09.994Z,98798.86
2023-07-29T06:20:37.763Z,98797.48
2023-07-29T06:23:05.526Z,98799.83
2023-07-29T06:25:33.303Z,98798.07
2023-07-29T06:28:01.196Z,98803.78
2023-07-29T06:30:29.047Z,98798.93
2023-07-29T06:32:56.824Z,98796.44
2023-07-29T06:35:24.961Z,98794.02
2023-07-29T06:37:52.569Z,98795.95
2023-07-29T06:40:20.297Z,98794.59
2023-07-29T06:42:47.905Z,98797.52
2023-07-29T06:45:16.940Z,98794.21
2023-07-29T06:47:44.653Z,98796.10
2023-07-29T06:50:12.412Z,98796.80
2023-07-29T06:52:41.672Z,98800.44
2023-07-29T06:55:09.538Z,98802.44
2023-07-29T06:57:37.297Z,98797.39
2023-07-29T07:00:05.474Z,98800.26
2023-07-29T07:02:33.290Z,98801.02
2023-07-29T07:05:01.311Z,98804.23
2023-07-29T07:07:29.069Z,98809.55
2023-07-29T07:09:57.982Z,98807.90
2023-07-29T07:12:27.670Z,98803.05
2023-07-29T07:14:55.646Z,98801.08
2023-07-29T07:17:23.447Z,98800.55
2023-07-29T07:19:51.491Z,98799.67
2023-07-29T07:22:19.753Z,98796.98
2023-07-29T07:24:47.569Z,98799.14
2023-07-29T07:27:15.396Z,98800.73
2023-07-29T07:29:43.146Z,98800.37
2023-07-29T07:32:10.890Z,98800.34
2023-07-29T07:34:38.576Z,98796.22
2023-07-29T07:37:06.377Z,98795.88
2023-07-29T07:39:34.115Z,98798.33
2023-07-29T07:42:02.096Z,98800.52
2023-07-29T07:44:29.838Z,98801.69
2023-07-29T07:46:57.611Z,98801.35
2023-07-29T07:49:25.374Z,98803.78
2023-07-29T07:51:53.341Z,98804.22
2023-07-29T07:54:21.108Z,98799.73
2023-07-29T07:56:48.762Z,98805.13
2023-07-29T07:59:18.067Z,98802.73
2023-07-29T08:01:46.240Z,98799.64
2023-07-29T08:04:14.205Z,98797.48
2023-07-29T08:06:41.779Z,98795.96
2023-07-29T08:09:09.473Z,98793.75
2023-07-29T08:11:37.063Z,98789.20
2023-07-29T08:14:04.688Z,98787.66
2023-07-29T08:16:32.373Z,98782.98
2023-07-29T08:19:00.096Z,98780.23
2023-07-29T08:21:27.670Z,98779.43
2023-07-29T08:23:55.264Z,98781.15
2023-07-29T08:26:22.875Z,98780.35
2023-07-29T08:28:53.098Z,98784.39
2023-07-29T08:31:22.648Z,98789.73
2023-07-29T08:33:50.482Z,98787.05
2023-07-29T08:36:18.059Z,98784.07
2023-07-29T08:38:45.694Z,98784.14
2023-07-29T08:41:13.340Z,98781.21
2023-07-29T08:43:41.181Z,98781.52
2023-07-29T08:46:08.760Z,98778.79
2023-07-29T08:48:36.326Z,98779.11
2023-07-29T08:51:03.911Z,98770.50
2023-07-29T08:53:31.503Z,98772.68
2023-07-29T08:55:59.379Z,98770.55
2023-07-29T08:58:26.996Z,98768.73
2023-07-29T09:00:54.669Z,98764.30
2023-07-29T09:03:22.634Z,98762.50
2023-07-29T09:05:50.373Z,98766.23
2023-07-29T09:08:18.050Z,98766.63
2023-07-29T09:10:45.814Z,98767.44
2023-07-29T09:13:13.486Z,98765.88
2023-07-29T09:15:43.471Z,98759.14
2023-07-29T09:18:11.256Z,98763.06
2023-07-29T09:20:39.306Z,98760.80
2023-07-29T09:23:07.018Z,98758.70
2023-07-29T09:25:35.282Z,98758.98
2023-07-29T09:28:03.086Z,98756.55
2023-07-29T09:30:32.072Z,98754.71
2023-07-29T09:33:00.008Z,98754.59
2023-07-29T09:35:28.758Z,98753.36
2023-07-29T09:38:03.553Z,98747.48
2023-07-29T09:40:31.446Z,98743.11
2023-07-29T09:42:59.482Z,98744.10
2023-07-29T09:45:27.593Z,98742.41
2023-07-29T09:47:55.390Z,98741.96
2023-07-29T09:50:23.785Z,98742.64
2023-07-29T09:52:51.481Z,98740.59
2023-07-29T09:55:19.184Z,98735.03
2023-07-29T09:57:47.456Z,98736.86
2023-07-29T10:00:16.345Z,98735.96
2023-07-29T10:02:44.250Z,98733.71
2023-07-29T10:05:12.024Z,98732.33
2023-07-29T10:07:39.652Z,98731.89
2023-07-29T10:10:07.405Z,98734.43
2023-07-29T10:12:35.046Z,98732.84
2023-07-29T10:15:02.748Z,98731.16
2023-07-29T10:17:30.406Z,98728.53
2023-07-29T10:20:01.095Z,98728.42
2023-07-29T10:22:28.715Z,98726.39
2023-07-29T10:24:57.723Z,98727.98
2023-07-29T10:27:25.588Z,98727.34
2023-07-29T10:29:53.225Z,98728.36
2023-07-29T10:32:21.113Z,98727.67
2023-07-29T10:34:48.870Z,98725.18
2023-07-29T10:37:16.455Z,98724.25
2023-07-29T10:39:44.208Z,98720.73
2023-07-29T10:42:11.848Z,98716.89
2023-07-29T10:44:39.579Z,98710.59
2023-07-29T10:47:07.348Z,98709.94
2023-07-29T10:49:35.104Z,98709.11
2023-07-29T10:52:02.680Z,98710.66
2023-07-29T10:54:30.360Z,98711.13
2023-07-29T10:56:57.953Z,98707.05
2023-07-29T10:59:25.554Z,98705.96
2023-07-29T11:01:53.209Z,98704.70
2023-07-29T11:04:31.817Z,98700.78
2023-07-29T11:06:59.753Z,98697.89
2023-07-29T11:09:27.325Z,98700.12
2023-07-29T11:11:54.914Z,98699.77
2023-07-29T11:14:22.524Z,98697.54
2023-07-29T11:16:50.115Z,98693.31
2023-07-29T11:19:17.706Z,98695.14
2023-07-29T11:21:45.280Z,98698.78
2023-07-29T11:24:12.853Z,98693.57
2023-07-29T11:26:42.570Z,98690.91
2023-07-29T11:29:10.168Z,98690.80
2023-07-29T11:31:37.784Z,98686.10
2023-07-29T11:34:05.408Z,98683.14
2023-07-29T11:36:33.105Z,98680.11
2023-07-29T11:39:00.747Z,98680.50
2023-07-29T11:41:28.400Z,98682.19
2023-07-29T11:43:56.029Z,98680.80
2023-07-29T11:46:24.035Z,98679.80
2023-07-29T11:48:51.708Z,98678.61
2023-07-29T11:51:19.853Z,98677.22
2023-07-29T11:53:47.632Z,98679.23
2023-07-29T11:56:15.336Z,98680.09
2023-07-29T11:58:43.025Z,98676.90
2023-07-29T12:01:10.792Z,98676.41
2023-07-29T12:03:38.470Z,98675.62
2023-07-29T12:06:06.087Z,98677.98
2023-07-29T12:08:33.662Z,98680.08
2023-07-29T12:11:01.254Z,98680.07
2023-07-29T12:13:28.925Z,98677.23
2023-07-29T12:15:56.509Z,98673.34
2023-07-29T12:18:24.155Z,98668.30
2023-07-29T12:20:51.775Z,98667.04
2023-07-29T12:23:19.356Z,98664.68
2023-07-29T12:25:47.028Z,98663.67
2023-07-29T12:28:14.653Z,98666.86
2023-07-29T12:30:42.286Z,98676.10
2023-07-29T12:33:09.967Z,98685.14
2023-07-29T12:35:37.879Z,98685.47
2023-07-29T12:38:05.515Z,98688.83
2023-07-29T12:40:33.116Z,98689.00
2023-07-29T12:43:00.729Z,98688.41
2023-07-29T12:45:29.884Z,98687.94
2023-07-29T12:47:58.237Z,98682.19
2023-07-29T12:50:26.019Z,98676.38
2023-07-29T12:52:53.618Z,98675.58
2023-07-29T12:55:23.654Z,98680.45
2023-07-29T12:57:52.549Z,98688.63
2023-07-29T13:00:20.438Z,98692.20
2023-07-29T13:02:48.610Z,98688.69
2023-07-29T13:05:16.486Z,98688.42
2023-07-29T13:07:44.246Z,98687.58
2023-07-29T13:10:11.953Z,98687.25
2023-07-29T13:12:39.770Z,98686.86
2023-07-29T13:15:07.644Z,98686.17
2023-07-29T13:17:35.631Z,98690.65
2023-07-29T13:20:03.906Z,98688.50
2023-07-29T13:22:32.643Z,98688.80
2023-07-29T13:25:00.649Z,98691.52
2023-07-29T13:27:30.045Z,98694.11
2023-07-29T13:29:58.322Z,98696.88
2023-07-29T13:32:26.389Z,98699.59
2023-07-29T13:38:00.324Z,98692.15
2023-07-29T13:40:28.087Z,98693.38
2023-07-29T13:42:56.069Z,98695.16
2023-07-29T13:45:23.922Z,98693.02
2023-07-29T13:47:53.907Z,98693.58
2023-07-29T13:50:22.035Z,98694.01
2023-07-29T13:52:49.886Z,98695.02
2023-07-29T13:55:17.650Z,98696.34
2023-07-29T13:57:46.025Z,98698.66
2023-07-29T14:00:14.199Z,98704.86
2023-07-29T14:02:42.291Z,98709.23
2023-07-29T14:05:10.286Z,98713.02
2023-07-29T14:07:38.015Z,98718.81
2023-07-29T14:10:06.076Z,98728.81
2023-07-29T14:12:33.861Z,98740.00
2023-07-29T14:15:01.536Z,98750.51
2023-07-29T14:17:29.478Z,98745.56
2023-07-29T14:19:57.232Z,98741.22
2023-07-29T14:22:24.846Z,98741.91
2023-07-29T14:24:52.491Z,98733.80
2023-07-29T14:27:20.120Z,98723.00
2023-07-29T14:29:47.864Z,98709.81
2023-07-29T14:32:15.477Z,98697.55
2023-07-29T14:34:43.028Z,98685.34
2023-07-29T14:37:10.615Z,98676.31
2023-07-29T14:39:39.577Z,98673.34
2023-07-29T14:42:07.898Z,98672.62
2023-07-29T14:44:35.510Z,98670.40
2023-07-29T14:47:03.091Z,98671.22
2023-07-29T14:49:30.775Z,98662.73
2023-07-29T14:51:58.396Z,98663.14
2023-07-29T14:54:26.077Z,98661.48
2023-07-29T14:56:53.728Z,98658.70
2023-07-29T14:59:21.335Z,98654.35
2023-07-29T15:01:48.968Z,98645.55
2023-07-29T15:04:17.630Z,98641.29
2023-07-29T15:06:45.236Z,98637.13
2023-07-29T15:09:12.826Z,98630.55
2023-07-29T15:11:41.904Z,98628.25
2023-07-29T15:14:09.981Z,98627.27
2023-07-29T15:16:38.815Z,98624.80
2023-07-29T15:19:06.702Z,98621.52
2023-07-29T15:21:34.838Z,98618.23
2023-07-29T15:24:02.502Z,98614.35
2023-07-29T15:26:30.093Z,98614.94
2023-07-29T15:28:57.684Z,98616.17
2023-07-29T15:31:25.437Z,98612.60
2023-07-29T15:33:53.025Z,98613.27
2023-07-29T15:36:20.597Z,98608.02
2023-07-29T15:38:48.191Z,98605.55
2023-07-29T15:41:15.772Z,98605.36
2023-07-29T15:43:43.357Z,98601.63
2023-07-29T15:46:11.248Z,98600.02
2023-07-29T15:48:38.831Z,98601.05
2023-07-29T15:51:07.152Z,98598.80
2023-07-29T15:53:35.224Z,98598.05
2023-07-29T15:56:02.823Z,98601.11
2023-07-29T15:58:30.403Z,98602.79
2023-07-29T16:00:58.005Z,98603.13
2023-07-29T16:03:26.711Z,98600.26
2023-07-29T16:05:54.587Z,98600.55
2023-07-29T16:08:22.169Z,98598.55
2023-07-29T16:10:49.748Z,98595.38
2023-07-29T16:13:19.311Z,98597.36
2023-07-29T16:15:47.044Z,98599.51
2023-07-29T16:18:14.657Z,98594.79
2023-07-29T16:20:42.226Z,98596.77
2023-07-29T16:23:10.221Z,98592.07
2023-07-29T16:25:37.978Z,98589.03
2023-07-29T16:28:05.627Z,98589.92
2023-07-29T16:30:33.259Z,98594.39
2023-07-29T16:33:00.867Z,98594.20
2023-07-29T16:35:28.510Z,98599.45
2023-07-29T16:37:58.769Z,98598.19
2023-07-29T16:40:26.380Z,98601.41
2023-07-29T16:42:54.030Z,98604.30
2023-07-29T16:45:21.707Z,98602.98
2023-07-29T16:47:49.330Z,98600.08
2023-07-29T16:50:17.120Z,98597.72
2023-07-29T16:52:44.855Z,98600.55
2023-07-29T16:55:12.545Z,98592.95
2023-07-29T16:57:40.231Z,98592.37
2023-07-29T17:00:08.249Z,98593.39
2023-07-29T17:02:36.022Z,98594.09
2023-07-29T17:05:05.429Z,98594.86
2023-07-29T17:07:33.332Z,98598.05
2023-07-29T17:10:00.983Z,98598.21
2023-07-29T17:12:28.674Z,98601.05
2023-07-29T17:14:56.302Z,98603.96
2023-07-29T17:17:23.978Z,98605.67
2023-07-29T17:19:51.614Z,98608.73
2023-07-29T17:22:19.286Z,98612.70
2023-07-29T17:24:47.006Z,98611.36
2023-07-29T17:27:14.743Z,98610.02
2023-07-29T17:29:43.432Z,98602.97
2023-07-29T17:32:11.093Z,98595.54
2023-07-29T17:34:38.817Z,98603.86
2023-07-29T17:37:06.430Z,98603.89
2023-07-29T17:39:34.110Z,98603.52
2023-07-29T17:42:01.824Z,98602.59
2023-07-29T17:44:29.550Z,98601.98
2023-07-29T17:46:57.294Z,98602.61
2023-07-29T17:49:24.919Z,98602.61
2023-07-29T17:51:52.515Z,98602.52
2023-07-29T17:54:20.153Z,98605.45
2023-07-29T17:56:47.782Z,98604.05
2023-07-29T17:59:15.372Z,98592.98
2023-07-29T18:01:43.989Z,98591.31
2023-07-29T18:04:11.632Z,98594.21
2023-07-29T18:06:39.425Z,98588.27
2023-07-29T18:09:07.241Z,98584.39
2023-07-29T18:11:34.859Z,98582.13
2023-07-29T18:14:02.809Z,98584.98
2023-07-29T18:16:30.493Z,98580.71
2023-07-29T18:18:58.158Z,98577.48
2023-07-29T18:21:25.781Z,98579.55
2023-07-29T18:23:53.397Z,98576.34
2023-07-29T18:26:21.006Z,98577.83
2023-07-29T18:28:48.590Z,98583.16
2023-07-29T18:31:16.236Z,98589.69
2023-07-29T18:33:43.890Z,98594.08
2023-07-29T18:36:11.501Z,98590.20
2023-07-29T18:38:39.178Z,98591.48
2023-07-29T18:41:06.761Z,98592.16
2023-07-29T18:43:34.390Z,98591.15
2023-07-29T18:46:02.006Z,98594.11
2023-07-29T18:48:29.602Z,98595.38
2023-07-29T18:50:57.182Z,98591.26
2023-07-29T18:53:25.366Z,98589.23
2023-07-29T18:55:53.001Z,98589.74
2023-07-29T18:58:21.213Z,98589.23
2023-07-29T19:00:50.147Z,98589.59
2023-07-29T19:03:17.987Z,98594.91
2023-07-29T19:05:46.531Z,98590.54
2023-07-29T19:08:14.334Z,98592.50
2023-07-29T19:10:41.949Z,98593.27
2023-07-29T19:13:09.560Z,98592.56
2023-07-29T19:15:38.558Z,98596.10
2023-07-29T19:18:06.192Z,98596.69
2023-07-29T19:20:34.060Z,98590.61
2023-07-29T19:23:01.735Z,98591.55
2023-07-29T19:25:29.355Z,98589.98
2023-07-29T19:27:56.964Z,98589.19
2023-07-29T19:30:24.628Z,98590.80
2023-07-29T19:32:52.336Z,98586.31
2023-07-29T19:35:19.949Z,98592.57
2023-07-29T19:37:47.601Z,98596.30
2023-07-29T19:40:15.307Z,98602.02
2023-07-29T19:42:42.891Z,98601.58
2023-07-29T19:45:10.477Z,98602.23
2023-07-29T19:47:38.088Z,98607.11
2023-07-29T19:50:05.756Z,98604.68
2023-07-29T19:52:33.398Z,98601.61
2023-07-29T19:55:01.005Z,98601.61
2023-07-29T19:57:28.645Z,98604.14
2023-07-29T19:59:56.266Z,98608.02
2023-07-29T20:02:23.916Z,98602.84
2023-07-29T20:04:51.669Z,98596.93
2023-07-29T20:07:19.295Z,98589.93
2023-07-29T20:09:46.968Z,98591.39
2023-07-29T20:12:14.604Z,98587.51
2023-07-29T20:14:42.217Z,98589.16
2023-07-29T20:17:10.008Z,98591.39
2023-07-29T20:19:37.633Z,98588.80
2023-07-29T20:22:05.378Z,98586.88
2023-07-29T20:24:32.984Z,98583.34
2023-07-29T20:27:00.807Z,98581.70
2023-07-29T20:29:28.542Z,98581.92
2023-07-29T20:31:56.262Z,98578.27
2023-07-29T20:34:24.440Z,98581.33
2023-07-29T20:36:52.040Z,98581.17
2023-07-29T20:39:19.702Z,98585.20
2023-07-29T20:41:47.368Z,98583.95
2023-07-29T20:44:15.628Z,98583.05
2023-07-29T20:46:43.305Z,98578.36
2023-07-29T20:49:10.956Z,98577.95
2023-07-29T20:51:38.792Z,98575.30
2023-07-29T20:54:06.769Z,98571.46
2023-07-29T20:56:34.885Z,98567.15
2023-07-29T20:59:02.942Z,98562.26
2023-07-29T21:01:30.672Z,98559.23
2023-07-29T21:03:58.534Z,98558.04
2023-07-29T21:06:26.177Z,98559.09
2023-07-29T21:08:53.766Z,98562.84
2023-07-29T21:11:21.332Z,98566.95
2023-07-29T21:13:51.380Z,98567.61
2023-07-29T21:16:19.078Z,98566.08
2023-07-29T21:18:46.801Z,98564.83
2023-07-29T21:21:14.503Z,98564.45
2023-07-29T21:23:42.219Z,98569.16
2023-07-29T21:26:09.880Z,98571.55
2023-07-29T21:28:37.537Z,98568.20
2023-07-29T21:31:05.284Z,98567.99
2023-07-29T21:33:34.903Z,98568.09
2023-07-29T21:36:02.518Z,98576.73
2023-07-29T21:38:30.671Z,98581.70
2023-07-29T21:40:58.550Z,98587.88
2023-07-29T21:43:26.180Z,98587.11
2023-07-29T21:45:53.810Z,98594.39
2023-07-29T21:48:21.446Z,98598.48
2023-07-29T21:50:51.040Z,98591.90
2023-07-29T21:53:19.078Z,98583.64
2023-07-29T21:55:46.736Z,98594.77
2023-07-29T21:58:14.313Z,98605.02
2023-07-29T22:00:42.779Z,98611.55
2023-07-29T22:03:10.414Z,98607.91
2023-07-29T22:05:38.292Z,98602.29
2023-07-29T22:08:05.868Z,98608.88
2023-07-29T22:10:33.457Z,98613.19
2023-07-29T22:13:01.059Z,98607.19
2023-07-29T22:15:29.152Z,98613.74
2023-07-29T22:17:56.905Z,98616.70
2023-07-29T22:20:26.890Z,98619.23
2023-07-29T22:22:56.921Z,98624.35
2023-07-29T22:25:24.632Z,98629.13
2023-07-29T22:27:52.893Z,98627.42
2023-07-29T22:30:20.721Z,98619.41
2023-07-29T22:32:48.570Z,98623.63
2023-07-29T22:35:16.458Z,98623.89
2023-07-29T22:37:44.094Z,98629.07
2023-07-29T22:40:11.709Z,98629.98
2023-07-29T22:42:39.392Z,98630.90
2023-07-29T22:45:06.982Z,98629.94
2023-07-29T22:47:34.622Z,98623.86
2023-07-29T22:50:02.254Z,98624.88
2023-07-29T22:52:30.242Z,98623.52
2023-07-29T22:54:57.844Z,98619.65
2023-07-29T22:57:25.459Z,98620.48
2023-07-29T22:59:53.028Z,98628.60
2023-07-29T23:02:22.559Z,98636.24
2023-07-29T23:04:50.403Z,98640.02
2023-07-29T23:07:18.158Z,98643.23
2023-07-29T23:09:45.823Z,98650.83
2023-07-29T23:12:13.591Z,98653.78
2023-07-29T23:14:42.695Z,98652.35
2023-07-29T23:17:12.239Z,98656.59
2023-07-29T23:19:39.951Z,98660.23
2023-07-29T23:22:07.818Z,98663.21
2023-07-29T23:24:35.482Z,98655.89
2023-07-29T23:27:03.159Z,98644.23
2023-07-29T23:29:31.018Z,98648.19
2023-07-29T23:31:58.819Z,98644.92
2023-07-29T23:34:26.644Z,98644.17
2023-07-29T23:36:54.407Z,98650.36
2023-07-29T23:39:22.177Z,98653.98
2023-07-29T23:41:49.940Z,98653.16
2023-07-29T23:44:17.700Z,98653.03
2023-07-29T23:46:45.584Z,98650.54
2023-07-29T23:49:13.205Z,98655.05
2023-07-29T23:51:40.802Z,98657.17
2023-07-29T23:54:09.201Z,98654.63
2023-07-29T23:56:36.934Z,98652.06
2023-07-29T23:59:04.521Z,98641.88
